createdAt,value
2018-12-23T00:02:13.023Z,7.37
2018-12-23T00:07:17.867Z,7.28
2018-12-23T00:12:24.133Z,7.48
2018-12-23T00:17:29.111Z,7.40
2018-12-23T00:22:33.970Z,7.41
2018-12-23T00:27:39.483Z,7.49
2018-12-23T00:32:44.552Z,7.34
2018-12-23T00:37:49.523Z,7.28
2018-12-23T00:42:54.593Z,7.17
2018-12-23T00:47:59.903Z,7.21
2018-12-23T00:53:06.074Z,7.13
2018-12-23T00:58:11.149Z,7.29
2018-12-23T01:03:16.270Z,7.26
2018-12-23T01:08:21.089Z,7.37
2018-12-23T01:13:26.299Z,7.27
2018-12-23T01:18:31.120Z,7.30
2018-12-23T01:23:36.365Z,7.27
2018-12-23T01:28:42.072Z,7.11
2018-12-23T01:33:47.086Z,7.10
2018-12-23T01:38:51.945Z,7.22
2018-12-23T01:43:57.467Z,7.23
2018-12-23T01:49:03.019Z,7.27
2018-12-23T01:54:07.838Z,7.38
2018-12-23T01:59:13.078Z,7.12
2018-12-23T02:04:18.201Z,7.32
2018-12-23T02:09:23.055Z,7.14
2018-12-23T02:14:28.110Z,7.10
2018-12-23T02:19:32.973Z,7.04
2018-12-23T02:24:43.238Z,7.23
2018-12-23T02:29:48.129Z,7.00
2018-12-23T02:34:52.929Z,6.81
2018-12-23T02:39:57.718Z,6.71
2018-12-23T02:45:02.854Z,6.70
2018-12-23T02:50:10.272Z,6.88
2018-12-23T02:55:14.989Z,6.69
2018-12-23T03:00:29.773Z,6.50
2018-12-23T03:05:34.580Z,6.38
2018-12-23T03:10:39.416Z,6.45
2018-12-23T03:15:44.470Z,6.53
2018-12-23T03:20:49.355Z,6.50
2018-12-23T03:25:54.142Z,6.32
2018-12-23T03:30:59.010Z,6.49
2018-12-23T03:36:04.555Z,6.40
2018-12-23T03:41:09.415Z,6.50
2018-12-23T03:46:14.172Z,6.53
2018-12-23T03:51:19.018Z,6.66
2018-12-23T03:56:26.577Z,6.66
2018-12-23T04:01:31.387Z,6.42
2018-12-23T04:06:36.723Z,6.59
2018-12-23T04:11:41.578Z,6.50
2018-12-23T04:16:46.298Z,6.52
2018-12-23T04:21:51.181Z,6.71
2018-12-23T04:26:56.643Z,6.59
2018-12-23T04:32:02.904Z,6.76
2018-12-23T04:37:07.770Z,6.78
2018-12-23T04:42:12.721Z,6.69
2018-12-23T04:47:17.599Z,6.61
2018-12-23T04:52:23.425Z,6.55
2018-12-23T04:57:28.376Z,6.63
2018-12-23T05:02:33.243Z,6.77
2018-12-23T05:13:06.564Z,6.91
2018-12-23T05:18:11.762Z,6.92
2018-12-23T05:23:16.592Z,6.65
2018-12-23T05:28:21.772Z,6.79
2018-12-23T05:33:26.649Z,6.96
2018-12-23T05:38:32.716Z,6.71
2018-12-23T05:43:38.541Z,6.77
2018-12-23T05:48:43.964Z,6.91
2018-12-23T05:53:49.175Z,6.71
2018-12-23T05:58:54.624Z,6.77
2018-12-23T06:03:59.572Z,6.69
2018-12-23T06:09:06.029Z,6.74
2018-12-23T06:14:11.284Z,6.69
2018-12-23T06:19:17.270Z,6.75
2018-12-23T06:24:22.178Z,6.77
2018-12-23T06:29:27.778Z,7.02
2018-12-23T06:34:33.134Z,6.76
2018-12-23T06:39:39.075Z,6.58
2018-12-23T06:44:44.672Z,6.63
2018-12-23T06:49:49.612Z,6.62
2018-12-23T06:54:54.774Z,6.89
2018-12-23T07:00:00.264Z,6.74
2018-12-23T07:05:08.055Z,6.80
2018-12-23T07:10:12.972Z,6.76
2018-12-23T07:15:18.652Z,6.68
2018-12-23T07:20:23.523Z,6.85
2018-12-23T07:25:28.665Z,6.70
2018-12-23T07:30:33.478Z,6.74
2018-12-23T07:35:38.337Z,6.72
2018-12-23T07:40:43.328Z,6.68
2018-12-23T07:45:48.659Z,6.65
2018-12-23T07:50:53.920Z,6.83
2018-12-23T07:55:59.464Z,6.82
2018-12-23T08:01:05.386Z,7.03
2018-12-23T08:06:10.499Z,6.77
2018-12-23T08:11:15.603Z,6.89
2018-12-23T08:16:20.950Z,6.91
2018-12-23T08:21:25.775Z,7.02
2018-12-23T08:26:30.565Z,7.15
2018-12-23T08:31:36.050Z,7.28
2018-12-23T08:36:43.293Z,7.38
2018-12-23T08:41:48.066Z,7.37
2018-12-23T08:46:52.888Z,7.33
2018-12-23T08:51:59.043Z,7.24
2018-12-23T08:57:05.212Z,7.29
2018-12-23T09:02:10.142Z,7.16
2018-12-23T09:07:15.007Z,7.39
2018-12-23T09:12:19.843Z,7.41
2018-12-23T09:17:24.836Z,7.40
2018-12-23T09:22:29.717Z,7.55
2018-12-23T09:27:35.539Z,7.54
2018-12-23T09:32:40.377Z,7.55
2018-12-23T09:37:45.819Z,7.68
2018-12-23T09:42:50.971Z,7.64
2018-12-23T09:47:56.052Z,7.52
2018-12-23T09:53:01.549Z,7.91
2018-12-23T09:58:06.597Z,8.02
2018-12-23T10:03:12.420Z,7.99
2018-12-23T10:08:18.268Z,7.99
2018-12-23T10:13:23.406Z,8.01
2018-12-23T10:23:58.048Z,8.17
2018-12-23T10:29:05.226Z,8.15
2018-12-23T10:34:10.931Z,8.08
2018-12-23T10:39:16.873Z,8.20
2018-12-23T10:44:22.398Z,8.26
2018-12-23T10:49:28.238Z,8.12
2018-12-23T10:54:33.483Z,8.23
2018-12-23T11:05:41.161Z,8.15
2018-12-23T11:10:47.716Z,8.20
2018-12-23T11:15:58.322Z,8.35
2018-12-23T11:21:07.051Z,8.37
2018-12-23T11:26:14.953Z,8.36
2018-12-23T11:31:21.280Z,8.33
2018-12-23T11:36:27.603Z,8.30
2018-12-23T11:41:34.010Z,8.15
2018-12-23T11:46:43.259Z,8.27
2018-12-23T11:51:49.569Z,8.15
2018-12-23T11:56:55.888Z,8.32
2018-12-23T12:02:03.436Z,8.40
2018-12-23T12:07:09.819Z,8.56
2018-12-23T12:12:16.191Z,8.45
2018-12-23T12:17:25.384Z,8.66
2018-12-23T12:22:31.817Z,8.38
2018-12-23T12:27:38.291Z,8.48
2018-12-23T12:32:44.600Z,8.58
2018-12-23T12:37:50.935Z,8.58
2018-12-23T12:42:57.320Z,8.79
2018-12-23T12:48:07.863Z,8.68
2018-12-23T12:53:14.661Z,8.77
2018-12-23T12:58:22.605Z,8.64
2018-12-23T13:03:28.963Z,8.69
2018-12-23T13:08:35.272Z,8.31
2018-12-23T13:13:42.092Z,8.43
2018-12-23T13:18:48.384Z,8.45
2018-12-23T13:23:54.714Z,8.68
2018-12-23T13:29:05.067Z,8.64
2018-12-23T13:34:11.619Z,8.60
2018-12-23T13:39:22.083Z,8.74
2018-12-23T13:45:06.890Z,8.68
2018-12-23T13:51:01.758Z,8.64
2018-12-23T13:57:02.471Z,8.50
2018-12-23T14:02:45.577Z,8.31
2018-12-23T14:08:38.629Z,8.40
2018-12-23T14:13:46.066Z,8.36
2018-12-23T14:18:52.345Z,8.47
2018-12-23T14:23:58.796Z,8.41
2018-12-23T14:29:06.711Z,8.43
2018-12-23T14:34:13.887Z,8.33
2018-12-23T14:39:27.024Z,8.40
2018-12-23T14:44:29.211Z,8.22
2018-12-23T14:54:44.005Z,8.15
2018-12-23T14:59:50.352Z,8.02
2018-12-23T15:04:56.434Z,8.03
2018-12-23T15:10:09.614Z,8.08
2018-12-23T15:15:16.062Z,8.02
2018-12-23T15:20:22.367Z,7.93
2018-12-23T15:25:30.536Z,8.03
2018-12-23T15:30:39.213Z,7.97
2018-12-23T15:35:46.823Z,7.94
2018-12-23T15:40:53.244Z,7.85
2018-12-23T15:45:59.518Z,7.83
2018-12-23T15:51:06.824Z,7.69
2018-12-23T15:56:16.056Z,7.90
2018-12-23T16:01:24.954Z,7.65
2018-12-23T16:06:32.884Z,7.60
2018-12-23T16:11:39.705Z,7.66
2018-12-23T16:16:49.007Z,7.67
2018-12-23T16:21:55.300Z,7.73
2018-12-23T16:27:03.483Z,7.62
2018-12-23T16:32:10.861Z,7.65
2018-12-23T16:37:19.112Z,7.68
2018-12-23T16:42:26.700Z,7.75
2018-12-23T16:47:36.076Z,7.60
2018-12-23T16:52:42.372Z,7.75
2018-12-23T16:57:53.338Z,7.42
2018-12-23T17:03:00.562Z,7.52
2018-12-23T17:08:12.440Z,7.73
2018-12-23T17:13:18.901Z,7.68
2018-12-23T17:18:28.104Z,7.76
2018-12-23T17:23:34.868Z,7.62
2018-12-23T17:28:42.710Z,7.63
2018-12-23T17:33:49.596Z,7.85
2018-12-23T17:38:57.998Z,7.71
2018-12-23T17:44:06.352Z,7.53
2018-12-23T17:49:12.645Z,7.39
2018-12-23T17:54:22.564Z,7.35
2018-12-23T17:59:30.717Z,7.39
2018-12-23T18:04:37.046Z,7.42
2018-12-23T18:09:46.658Z,7.10
2018-12-23T18:14:53.086Z,7.13
2018-12-23T18:20:01.335Z,7.08
2018-12-23T18:25:11.352Z,6.97
2018-12-23T18:30:18.388Z,7.10
2018-12-23T18:35:28.565Z,6.89
2018-12-23T18:40:38.065Z,7.07
2018-12-23T18:45:45.959Z,7.10
2018-12-23T18:50:52.688Z,7.01
2018-12-23T18:55:59.351Z,7.02
2018-12-23T19:01:08.366Z,6.89
2018-12-23T19:06:14.976Z,6.81
2018-12-23T19:12:04.321Z,7.19
2018-12-23T19:17:50.315Z,7.22
2018-12-23T19:23:47.017Z,6.78
2018-12-23T19:29:47.130Z,6.81
2018-12-23T19:35:45.987Z,6.45
2018-12-23T19:41:38.761Z,6.90
2018-12-23T19:47:43.623Z,6.83
2018-12-23T19:53:18.523Z,6.91
2018-12-23T19:59:07.957Z,6.89
2018-12-23T20:04:37.476Z,6.49
2018-12-23T20:10:31.905Z,6.52
2018-12-23T20:16:36.604Z,6.39
2018-12-23T20:22:29.620Z,6.55
2018-12-23T20:28:40.584Z,6.55
2018-12-23T20:34:15.718Z,6.67
2018-12-23T20:39:54.738Z,6.47
2018-12-23T20:45:50.827Z,6.71
2018-12-23T20:51:34.836Z,6.82
2018-12-23T20:57:25.436Z,6.84
2018-12-23T21:03:39.563Z,6.83
2018-12-23T21:09:22.397Z,6.72
2018-12-23T21:15:09.457Z,6.74
2018-12-23T21:20:56.357Z,6.72
2018-12-23T21:26:30.752Z,6.52
2018-12-23T21:32:33.273Z,6.68
2018-12-23T21:38:17.526Z,6.77
2018-12-23T21:43:59.213Z,6.64
2018-12-23T21:49:36.491Z,6.88
2018-12-23T21:55:23.986Z,6.71
2018-12-23T22:01:04.010Z,6.79
2018-12-23T22:06:46.475Z,6.69
2018-12-23T22:12:28.961Z,6.72
2018-12-23T22:17:35.936Z,6.55
2018-12-23T22:22:42.626Z,6.64
2018-12-23T22:27:50.272Z,6.53
2018-12-23T22:32:56.731Z,6.62
2018-12-23T22:38:04.829Z,6.86
2018-12-23T22:43:12.335Z,6.55
2018-12-23T22:48:18.701Z,6.45
2018-12-23T22:53:25.223Z,6.58
2018-12-23T22:58:31.442Z,6.56
2018-12-23T23:03:38.107Z,6.05
2018-12-23T23:13:49.741Z,5.60
2018-12-23T23:18:56.347Z,4.83
2018-12-23T23:24:02.723Z,5.21
2018-12-23T23:29:11.281Z,4.62
2018-12-23T23:34:17.771Z,4.54
2018-12-23T23:39:23.982Z,4.38
2018-12-23T23:44:30.433Z,4.16
2018-12-23T23:49:36.669Z,4.28
2018-12-23T23:54:43.797Z,4.66
2018-12-23T23:59:50.088Z,5.26
